Eppley Airfield
KOMA : now visible

Airfield :











YOU CAN JOIN US ON...

 
LOGIN :

Register | Disclaimer

   EN    FR    IT 

 









Legend :    VFR   Marginal VFR   IFR   Intensive IFR   Very Intensive IFR
Visi :
Ceiling :
>= 8 km
>= 3000ft
5 to 8 km
1000 to 3000 ft
1500m to 5 km
500 to 1000 ft
800 to 1500m
200 to 500 ft
< 800m
< 200 ft
Symbols :   Thunderstorms  Fog  Heavy snow  Heavy precipitations  Wind > 20 kt






- Airport Elevation : 984 ft
- IATA code : OMA


KOMA - Eppley

CURRENT METAR :
  • 291752Z 33011G21KT 10SM FEW055 23/09 A3017 RMK AO2 SLP213 T02280089 10228 20122 58006

EXPIRED METARs :
  • 291652Z 35016G21KT 10SM FEW050 22/08 A3018 RMK AO2 SLP215 T02170083
  • 291552Z 34009G19KT 10SM CLR 21/09 A3019 RMK AO2 SLP220 T02060094
  • 291452Z 34007KT 10SM CLR 19/09 A3019 RMK AO2 SLP220 T01940089 51006

TAF KOMA
Valid from the 29 at 18:00 until the 30 at 18:00 UTC


291720Z 2918/3018 34012KT P6SM SKC
FM300100 01005KT P6SM FEW250
FM301400 VRB04KT P6SM VCSH OVC090
FM301700 10005KT 6SM BR VCSH OVC050
KZMP FIR / North America



MET'MAP, your aeronautical weather chart ! - Copyright ORBIFLY December 2007 - Disclaimer

ORBIFLY MET'MAP TEAM :

Programming & Development : Alexandra Zaïnal
Concept & original design : Baudouin d'Aumeries
Assistance for programming : Marc-Olivier Méhu
Technical & hardware support : Manuel Goepfert

Contact : metmap@orbifly.com




SOURCES & CREDITS :

   NOAA       Earth
Advisory